sensor_id;sensor_type;location;lat;lon;timestamp;pressure;altitude;pressure_sealevel;temperature;humidity
59272;BME280;45043;51.068;7.026;2023-05-21T00:00:34;100472.69;;;11.34;56.27
59272;BME280;45043;51.068;7.026;2023-05-21T00:03:34;100471.88;;;11.33;56.41
59272;BME280;45043;51.068;7.026;2023-05-21T00:06:35;100466.13;;;11.30;56.60
59272;BME280;45043;51.068;7.026;2023-05-21T00:09:36;100469.84;;;11.35;56.81
59272;BME280;45043;51.068;7.026;2023-05-21T00:12:40;100462.88;;;11.41;56.46
59272;BME280;45043;51.068;7.026;2023-05-21T00:15:41;100461.84;;;11.42;57.02
59272;BME280;45043;51.068;7.026;2023-05-21T00:18:41;100459.63;;;11.39;56.53
59272;BME280;45043;51.068;7.026;2023-05-21T00:21:42;100462.06;;;11.40;56.69
59272;BME280;45043;51.068;7.026;2023-05-21T00:24:45;100454.50;;;11.44;56.68
59272;BME280;45043;51.068;7.026;2023-05-21T00:27:45;100453.47;;;11.45;56.58
59272;BME280;45043;51.068;7.026;2023-05-21T00:30:46;100451.44;;;11.47;56.54
59272;BME280;45043;51.068;7.026;2023-05-21T00:33:47;100443.06;;;11.50;56.53
59272;BME280;45043;51.068;7.026;2023-05-21T00:36:47;100429.75;;;11.50;56.34
59272;BME280;45043;51.068;7.026;2023-05-21T00:39:48;100438.13;;;11.47;56.40
59272;BME280;45043;51.068;7.026;2023-05-21T00:42:48;100440.56;;;11.29;56.83
59272;BME280;45043;51.068;7.026;2023-05-21T00:45:49;100436.66;;;11.18;57.04
59272;BME280;45043;51.068;7.026;2023-05-21T00:48:50;100435.84;;;11.17;57.25
59272;BME280;45043;51.068;7.026;2023-05-21T00:51:51;100441.94;;;11.11;57.27
59272;BME280;45043;51.068;7.026;2023-05-21T00:54:52;100439.47;;;11.03;57.50
59272;BME280;45043;51.068;7.026;2023-05-21T00:57:53;100434.16;;;11.03;57.52
59272;BME280;45043;51.068;7.026;2023-05-21T01:00:53;100428.81;;;10.96;57.63
59272;BME280;45043;51.068;7.026;2023-05-21T01:03:57;100426.53;;;10.87;58.16
59272;BME280;45043;51.068;7.026;2023-05-21T01:07:01;100426.72;;;10.79;58.46
59272;BME280;45043;51.068;7.026;2023-05-21T01:10:03;100426.72;;;10.79;58.35
59272;BME280;45043;51.068;7.026;2023-05-21T01:13:04;100420.56;;;10.78;58.34
59272;BME280;45043;51.068;7.026;2023-05-21T01:16:06;100424.25;;;10.77;58.41
59272;BME280;45043;51.068;7.026;2023-05-21T01:19:11;100427.91;;;10.69;58.67
59272;BME280;45043;51.068;7.026;2023-05-21T01:22:14;100431.13;;;10.65;59.12
59272;BME280;45043;51.068;7.026;2023-05-21T01:25:17;100427.63;;;10.58;59.26
59272;BME280;45043;51.068;7.026;2023-05-21T01:28:18;100426.34;;;10.47;59.54
59272;BME280;45043;51.068;7.026;2023-05-21T01:35:41;100423.13;;;10.23;59.95
59272;BME280;45043;51.068;7.026;2023-05-21T01:39:08;100418.25;;;10.20;60.02
59272;BME280;45043;51.068;7.026;2023-05-21T01:42:17;100422.28;;;10.16;60.50
59272;BME280;45043;51.068;7.026;2023-05-21T01:45:18;100415.34;;;10.15;60.58
59272;BME280;45043;51.068;7.026;2023-05-21T01:48:22;100404.50;;;10.10;60.67
59272;BME280;45043;51.068;7.026;2023-05-21T01:51:24;100409.97;;;10.02;61.11
59272;BME280;45043;51.068;7.026;2023-05-21T01:54:25;100408.94;;;10.03;61.29
59272;BME280;45043;51.068;7.026;2023-05-21T01:57:26;100416.25;;;10.01;61.32
59272;BME280;45043;51.068;7.026;2023-05-21T02:00:26;100409.53;;;9.98;61.36
59272;BME280;45043;51.068;7.026;2023-05-21T02:03:28;100410.09;;;9.94;61.41
59272;BME280;45043;51.068;7.026;2023-05-21T02:06:30;100409.88;;;9.89;61.74
59272;BME280;45043;51.068;7.026;2023-05-21T02:09:31;100411.06;;;9.86;61.55
59272;BME280;45043;51.068;7.026;2023-05-21T02:12:32;100412.28;;;9.84;61.99
59272;BME280;45043;51.068;7.026;2023-05-21T02:15:34;100412.66;;;9.81;62.25
59272;BME280;45043;51.068;7.026;2023-05-21T02:18:35;100412.22;;;9.77;62.26
59272;BME280;45043;51.068;7.026;2023-05-21T02:21:35;100414.00;;;9.70;62.43
59272;BME280;45043;51.068;7.026;2023-05-21T02:24:36;100411.41;;;9.76;62.40
59272;BME280;45043;51.068;7.026;2023-05-21T02:27:38;100404.78;;;9.94;62.12
59272;BME280;45043;51.068;7.026;2023-05-21T02:30:38;100413.88;;;10.06;61.82
59272;BME280;45043;51.068;7.026;2023-05-21T02:33:40;100409.22;;;10.15;61.71
59272;BME280;45043;51.068;7.026;2023-05-21T02:36:41;100407.22;;;10.23;61.34
59272;BME280;45043;51.068;7.026;2023-05-21T02:39:42;100410.72;;;10.31;61.30
59272;BME280;45043;51.068;7.026;2023-05-21T02:42:42;100402.19;;;10.35;61.14
59272;BME280;45043;51.068;7.026;2023-05-21T02:45:47;100406.91;;;10.40;60.98
59272;BME280;45043;51.068;7.026;2023-05-21T02:48:48;100404.28;;;10.46;60.72
59272;BME280;45043;51.068;7.026;2023-05-21T02:51:49;100396.75;;;10.50;60.57
59272;BME280;45043;51.068;7.026;2023-05-21T02:54:50;100391.66;;;10.55;60.59
59272;BME280;45043;51.068;7.026;2023-05-21T02:57:51;100394.31;;;10.55;60.07
59272;BME280;45043;51.068;7.026;2023-05-21T03:00:52;100387.97;;;10.56;60.17
59272;BME280;45043;51.068;7.026;2023-05-21T03:03:53;100390.44;;;10.58;59.96
59272;BME280;45043;51.068;7.026;2023-05-21T03:06:55;100384.91;;;10.59;60.32
59272;BME280;45043;51.068;7.026;2023-05-21T03:09:56;100383.91;;;10.60;60.06
59272;BME280;45043;51.068;7.026;2023-05-21T03:12:57;100372.28;;;10.61;60.00
59272;BME280;45043;51.068;7.026;2023-05-21T03:15:57;100376.94;;;10.59;60.05
59272;BME280;45043;51.068;7.026;2023-05-21T03:18:58;100373.09;;;10.62;60.05
59272;BME280;45043;51.068;7.026;2023-05-21T03:21:59;100367.78;;;10.62;59.92
59272;BME280;45043;51.068;7.026;2023-05-21T03:25:00;100367.94;;;10.60;59.86
59272;BME280;45043;51.068;7.026;2023-05-21T03:28:02;100370.22;;;10.63;59.94
59272;BME280;45043;51.068;7.026;2023-05-21T03:31:23;100380.25;;;10.61;59.78
59272;BME280;45043;51.068;7.026;2023-05-21T03:34:38;100372.06;;;10.63;59.92
59272;BME280;45043;51.068;7.026;2023-05-21T03:37:38;100380.41;;;10.60;59.78
59272;BME280;45043;51.068;7.026;2023-05-21T03:40:39;100381.25;;;10.60;60.09
59272;BME280;45043;51.068;7.026;2023-05-21T03:43:40;100375.09;;;10.60;60.01
59272;BME280;45043;51.068;7.026;2023-05-21T03:46:41;100375.09;;;10.60;60.09
59272;BME280;45043;51.068;7.026;2023-05-21T03:49:52;100379.00;;;10.64;59.68
59272;BME280;45043;51.068;7.026;2023-05-21T03:52:53;100373.53;;;10.65;59.78
59272;BME280;45043;51.068;7.026;2023-05-21T03:55:53;100376.81;;;10.67;59.65
59272;BME280;45043;51.068;7.026;2023-05-21T03:58:56;100370.66;;;10.67;59.57
59272;BME280;45043;51.068;7.026;2023-05-21T04:01:58;100372.31;;;10.68;59.77
59272;BME280;45043;51.068;7.026;2023-05-21T04:04:59;100374.78;;;10.69;59.84
59272;BME280;45043;51.068;7.026;2023-05-21T04:08:00;100374.78;;;10.69;59.78
59272;BME280;45043;51.068;7.026;2023-05-21T04:11:01;100374.56;;;10.71;59.79
59272;BME280;45043;51.068;7.026;2023-05-21T04:14:02;100376.19;;;10.72;59.67
59272;BME280;45043;51.068;7.026;2023-05-21T04:17:03;100374.38;;;10.72;59.83
59272;BME280;45043;51.068;7.026;2023-05-21T04:20:05;100370.50;;;10.75;59.56
59272;BME280;45043;51.068;7.026;2023-05-21T04:23:06;100372.31;;;10.75;59.55
59272;BME280;45043;51.068;7.026;2023-05-21T04:26:07;100379.28;;;10.76;59.71
59272;BME280;45043;51.068;7.026;2023-05-21T04:29:07;100369.28;;;10.78;59.56
59272;BME280;45043;51.068;7.026;2023-05-21T04:32:09;100377.25;;;10.78;59.70
59272;BME280;45043;51.068;7.026;2023-05-21T04:35:10;100381.13;;;10.75;59.50
59272;BME280;45043;51.068;7.026;2023-05-21T04:38:11;100372.72;;;10.71;59.82
59272;BME280;45043;51.068;7.026;2023-05-21T04:41:13;100373.78;;;10.77;59.80
59272;BME280;45043;51.068;7.026;2023-05-21T04:44:14;100372.75;;;10.78;59.46
59272;BME280;45043;51.068;7.026;2023-05-21T04:47:16;100375.41;;;10.78;59.55
59272;BME280;45043;51.068;7.026;2023-05-21T04:50:21;100378.47;;;10.75;59.95
59272;BME280;45043;51.068;7.026;2023-05-21T04:53:22;100380.31;;;10.81;59.90
59272;BME280;45043;51.068;7.026;2023-05-21T04:56:25;100376.72;;;11.49;59.28
59272;BME280;45043;51.068;7.026;2023-05-21T04:59:28;100382.66;;;11.24;59.44
59272;BME280;45043;51.068;7.026;2023-05-21T05:02:29;100375.50;;;11.31;59.45
59272;BME280;45043;51.068;7.026;2023-05-21T05:05:29;100384.28;;;11.38;59.07
59272;BME280;45043;51.068;7.026;2023-05-21T05:08:30;100379.38;;;11.42;58.82
59272;BME280;45043;51.068;7.026;2023-05-21T05:11:31;100380.22;;;11.49;58.27
59272;BME280;45043;51.068;7.026;2023-05-21T05:14:32;100373.44;;;11.53;58.33
59272;BME280;45043;51.068;7.026;2023-05-21T06:27:23;100360.56;;;11.30;59.52
59272;BME280;45043;51.068;7.026;2023-05-21T06:30:24;100359.13;;;11.61;59.41
59272;BME280;45043;51.068;7.026;2023-05-21T06:33:26;100356.03;;;11.97;58.85
59272;BME280;45043;51.068;7.026;2023-05-21T06:36:26;100353.09;;;12.18;58.26
59272;BME280;45043;51.068;7.026;2023-05-21T06:39:30;100355.50;;;12.40;57.72
59272;BME280;45043;51.068;7.026;2023-05-21T06:42:31;100354.84;;;12.51;57.36
59272;BME280;45043;51.068;7.026;2023-05-21T06:45:49;100367.66;;;12.67;56.99
59272;BME280;45043;51.068;7.026;2023-05-21T06:49:00;100361.41;;;12.87;56.56
59272;BME280;45043;51.068;7.026;2023-05-21T06:52:01;100353.50;;;13.05;55.96
59272;BME280;45043;51.068;7.026;2023-05-21T06:55:02;100355.00;;;13.26;55.46
59272;BME280;45043;51.068;7.026;2023-05-21T06:58:17;100352.69;;;13.36;55.16
59272;BME280;45043;51.068;7.026;2023-05-21T07:01:17;100367.59;;;13.44;54.97
59272;BME280;45043;51.068;7.026;2023-05-21T07:04:19;100369.03;;;13.47;55.24
59272;BME280;45043;51.068;7.026;2023-05-21T07:07:19;100370.75;;;13.59;54.56
59272;BME280;45043;51.068;7.026;2023-05-21T07:10:21;100374.69;;;13.82;54.21
59272;BME280;45043;51.068;7.026;2023-05-21T07:13:21;100379.75;;;14.08;53.72
59272;BME280;45043;51.068;7.026;2023-05-21T07:16:22;100377.25;;;14.32;53.00
59272;BME280;45043;51.068;7.026;2023-05-21T07:19:23;100372.78;;;14.44;52.59
59272;BME280;45043;51.068;7.026;2023-05-21T07:22:23;100370.38;;;14.54;52.60
59272;BME280;45043;51.068;7.026;2023-05-21T07:25:24;100374.81;;;14.61;52.56
59272;BME280;45043;51.068;7.026;2023-05-21T07:28:25;100366.78;;;14.61;52.37
59272;BME280;45043;51.068;7.026;2023-05-21T07:31:25;100371.41;;;14.72;52.27
59272;BME280;45043;51.068;7.026;2023-05-21T07:34:26;100367.50;;;14.86;51.74
59272;BME280;45043;51.068;7.026;2023-05-21T07:37:28;100372.00;;;15.04;51.38
59272;BME280;45043;51.068;7.026;2023-05-21T07:40:28;100370.59;;;15.13;51.12
59272;BME280;45043;51.068;7.026;2023-05-21T07:43:30;100381.66;;;15.17;50.62
59272;BME280;45043;51.068;7.026;2023-05-21T07:46:31;100373.16;;;15.08;50.86
59272;BME280;45043;51.068;7.026;2023-05-21T07:49:31;100380.41;;;15.19;50.89
59272;BME280;45043;51.068;7.026;2023-05-21T07:52:32;100380.16;;;15.21;50.83
59272;BME280;45043;51.068;7.026;2023-05-21T07:55:34;100376.13;;;15.30;50.57
59272;BME280;45043;51.068;7.026;2023-05-21T07:58:34;100372.41;;;15.43;50.62
59272;BME280;45043;51.068;7.026;2023-05-21T08:01:36;100374.00;;;15.20;50.72
59272;BME280;45043;51.068;7.026;2023-05-21T08:04:36;100371.19;;;15.03;50.85
59272;BME280;45043;51.068;7.026;2023-05-21T08:07:37;100371.88;;;14.99;51.48
59272;BME280;45043;51.068;7.026;2023-05-21T08:10:38;100376.25;;;14.93;51.48
59272;BME280;45043;51.068;7.026;2023-05-21T08:13:39;100369.47;;;14.79;50.87
59272;BME280;45043;51.068;7.026;2023-05-21T08:16:45;100372.13;;;14.79;51.43
59272;BME280;45043;51.068;7.026;2023-05-21T08:19:45;100367.75;;;14.85;51.44
59272;BME280;45043;51.068;7.026;2023-05-21T08:22:46;100371.00;;;14.87;51.57
59272;BME280;45043;51.068;7.026;2023-05-21T08:25:47;100381.28;;;15.01;51.40
59272;BME280;45043;51.068;7.026;2023-05-21T08:28:48;100385.50;;;15.09;51.42
59272;BME280;45043;51.068;7.026;2023-05-21T08:31:48;100381.66;;;15.17;51.08
59272;BME280;45043;51.068;7.026;2023-05-21T08:34:49;100378.69;;;15.25;51.12
59272;BME280;45043;51.068;7.026;2023-05-21T08:38:11;100374.84;;;15.33;50.78
59272;BME280;45043;51.068;7.026;2023-05-21T08:41:27;100374.06;;;15.44;50.88
59272;BME280;45043;51.068;7.026;2023-05-21T08:44:32;100371.94;;;15.34;50.81
59272;BME280;45043;51.068;7.026;2023-05-21T08:47:34;100367.50;;;15.28;51.18
59272;BME280;45043;51.068;7.026;2023-05-21T08:50:37;100368.22;;;15.35;51.08
59272;BME280;45043;51.068;7.026;2023-05-21T08:53:44;100370.09;;;15.46;50.92
59272;BME280;45043;51.068;7.026;2023-05-21T08:56:47;100361.84;;;15.48;50.50
59272;BME280;45043;51.068;7.026;2023-05-21T08:59:50;100361.69;;;15.43;50.86
59272;BME280;45043;51.068;7.026;2023-05-21T09:02:58;100357.69;;;15.52;50.77
59272;BME280;45043;51.068;7.026;2023-05-21T09:06:02;100357.22;;;15.55;50.68
59272;BME280;45043;51.068;7.026;2023-05-21T09:09:13;100351.84;;;15.67;50.87
59272;BME280;45043;51.068;7.026;2023-05-21T09:12:20;100343.72;;;15.73;50.27
59272;BME280;45043;51.068;7.026;2023-05-21T09:15:21;100356.16;;;15.79;50.32
59272;BME280;45043;51.068;7.026;2023-05-21T09:18:21;100348.84;;;15.63;50.57
59272;BME280;45043;51.068;7.026;2023-05-21T09:21:29;100346.63;;;15.60;50.89
59272;BME280;45043;51.068;7.026;2023-05-21T09:24:45;100334.03;;;15.84;50.47
59272;BME280;45043;51.068;7.026;2023-05-21T09:27:47;100331.00;;;15.92;50.14
59272;BME280;45043;51.068;7.026;2023-05-21T09:30:51;100340.28;;;16.01;49.98
59272;BME280;45043;51.068;7.026;2023-05-21T09:33:53;100341.78;;;16.09;50.31
59272;BME280;45043;51.068;7.026;2023-05-21T09:36:55;100337.06;;;16.28;49.76
59272;BME280;45043;51.068;7.026;2023-05-21T09:39:56;100332.56;;;16.29;50.20
59272;BME280;45043;51.068;7.026;2023-05-21T09:42:58;100345.34;;;16.38;49.86
59272;BME280;45043;51.068;7.026;2023-05-21T09:46:01;100349.47;;;16.58;49.54
59272;BME280;45043;51.068;7.026;2023-05-21T09:49:21;100359.06;;;16.82;49.27
59272;BME280;45043;51.068;7.026;2023-05-21T09:52:26;100348.53;;;16.92;48.94
59272;BME280;45043;51.068;7.026;2023-05-21T09:55:28;100348.44;;;17.04;48.38
59272;BME280;45043;51.068;7.026;2023-05-21T09:58:31;100340.53;;;17.26;47.92
59272;BME280;45043;51.068;7.026;2023-05-21T10:01:32;100334.16;;;17.49;47.23
59272;BME280;45043;51.068;7.026;2023-05-21T10:04:36;100328.09;;;17.76;47.08
59272;BME280;45043;51.068;7.026;2023-05-21T10:07:38;100323.34;;;18.00;46.78
59272;BME280;45043;51.068;7.026;2023-05-21T10:10:45;100323.03;;;18.18;46.03
59272;BME280;45043;51.068;7.026;2023-05-21T10:13:54;100318.81;;;18.27;45.84
59272;BME280;45043;51.068;7.026;2023-05-21T10:16:57;100308.94;;;18.33;45.88
59272;BME280;45043;51.068;7.026;2023-05-21T10:20:01;100308.69;;;18.34;45.77
59272;BME280;45043;51.068;7.026;2023-05-21T10:23:01;100313.69;;;18.48;45.38
59272;BME280;45043;51.068;7.026;2023-05-21T10:26:02;100314.22;;;18.23;45.44
59272;BME280;45043;51.068;7.026;2023-05-21T10:32:08;100296.66;;;17.93;45.84
59272;BME280;45043;51.068;7.026;2023-05-21T10:35:10;100298.66;;;17.86;46.20
59272;BME280;45043;51.068;7.026;2023-05-21T10:38:12;100289.66;;;17.75;46.04
59272;BME280;45043;51.068;7.026;2023-05-21T10:41:15;100287.81;;;17.98;45.83
59272;BME280;45043;51.068;7.026;2023-05-21T10:48:17;100283.88;;;18.27;45.33
59272;BME280;45043;51.068;7.026;2023-05-21T10:51:44;100281.06;;;18.17;45.46
59272;BME280;45043;51.068;7.026;2023-05-21T10:55:12;100284.28;;;18.14;46.07
59272;BME280;45043;51.068;7.026;2023-05-21T11:01:54;100278.16;;;18.46;45.58
59272;BME280;45043;51.068;7.026;2023-05-21T11:05:00;100276.41;;;18.61;45.49
59272;BME280;45043;51.068;7.026;2023-05-21T11:08:30;100281.13;;;18.71;45.02
59272;BME280;45043;51.068;7.026;2023-05-21T11:14:56;100269.63;;;18.81;44.32
59272;BME280;45043;51.068;7.026;2023-05-21T11:17:57;100274.28;;;18.90;44.06
59272;BME280;45043;51.068;7.026;2023-05-21T11:24:17;100265.59;;;19.15;44.24
59272;BME280;45043;51.068;7.026;2023-05-21T11:27:38;100255.81;;;19.04;44.05
59272;BME280;45043;51.068;7.026;2023-05-21T11:30:39;100257.66;;;18.99;44.21
59272;BME280;45043;51.068;7.026;2023-05-21T11:33:41;100266.19;;;18.90;44.43
59272;BME280;45043;51.068;7.026;2023-05-21T11:36:47;100251.81;;;18.75;44.81
59272;BME280;45043;51.068;7.026;2023-05-21T11:39:49;100260.41;;;18.72;45.16
59272;BME280;45043;51.068;7.026;2023-05-21T11:42:52;100262.09;;;18.83;44.52
59272;BME280;45043;51.068;7.026;2023-05-21T11:45:53;100253.56;;;18.91;44.48
59272;BME280;45043;51.068;7.026;2023-05-21T11:48:57;100256.50;;;18.89;44.50
59272;BME280;45043;51.068;7.026;2023-05-21T11:51:59;100249.28;;;18.95;44.28
59272;BME280;45043;51.068;7.026;2023-05-21T11:55:01;100243.16;;;19.05;44.20
59272;BME280;45043;51.068;7.026;2023-05-21T11:58:01;100250.66;;;19.03;44.31
59272;BME280;45043;51.068;7.026;2023-05-21T12:01:07;100246.75;;;19.21;44.00
59272;BME280;45043;51.068;7.026;2023-05-21T12:04:35;100250.31;;;19.26;44.08
59272;BME280;45043;51.068;7.026;2023-05-21T12:07:36;100249.81;;;19.34;43.88
59272;BME280;45043;51.068;7.026;2023-05-21T12:10:37;100248.22;;;19.38;43.14
59272;BME280;45043;51.068;7.026;2023-05-21T12:13:41;100245.63;;;19.54;43.14
59272;BME280;45043;51.068;7.026;2023-05-21T12:16:43;100234.72;;;19.81;43.24
59272;BME280;45043;51.068;7.026;2023-05-21T12:19:44;100244.75;;;20.01;42.65
59272;BME280;45043;51.068;7.026;2023-05-21T12:22:47;100236.75;;;20.16;42.55
59272;BME280;45043;51.068;7.026;2023-05-21T12:25:47;100238.91;;;20.14;42.55
59272;BME280;45043;51.068;7.026;2023-05-21T12:28:48;100235.41;;;20.24;42.29
59272;BME280;45043;51.068;7.026;2023-05-21T12:31:49;100221.88;;;20.14;42.23
59272;BME280;45043;51.068;7.026;2023-05-21T12:34:51;100232.91;;;20.02;42.85
59272;BME280;45043;51.068;7.026;2023-05-21T12:37:53;100233.94;;;19.91;42.86
59272;BME280;45043;51.068;7.026;2023-05-21T12:40:54;100241.50;;;19.89;42.58
59272;BME280;45043;51.068;7.026;2023-05-21T12:43:54;100224.72;;;19.71;43.02
59272;BME280;45043;51.068;7.026;2023-05-21T12:46:56;100224.94;;;19.65;42.98
59272;BME280;45043;51.068;7.026;2023-05-21T12:49:57;100232.22;;;19.64;42.91
59272;BME280;45043;51.068;7.026;2023-05-21T12:52:57;100227.28;;;19.41;43.63
59272;BME280;45043;51.068;7.026;2023-05-21T12:56:15;100212.41;;;19.38;43.89
59272;BME280;45043;51.068;7.026;2023-05-21T12:59:15;100214.91;;;19.45;44.07
59272;BME280;45043;51.068;7.026;2023-05-21T13:02:25;100225.47;;;19.61;43.49
59272;BME280;45043;51.068;7.026;2023-05-21T13:05:26;100218.56;;;19.81;42.99
59272;BME280;45043;51.068;7.026;2023-05-21T13:08:26;100212.94;;;19.98;42.58
59272;BME280;45043;51.068;7.026;2023-05-21T13:11:27;100217.06;;;20.10;42.63
59272;BME280;45043;51.068;7.026;2023-05-21T13:14:28;100213.56;;;20.25;42.49
59272;BME280;45043;51.068;7.026;2023-05-21T13:17:29;100206.56;;;20.40;42.82
59272;BME280;45043;51.068;7.026;2023-05-21T13:20:30;100213.56;;;20.51;42.36
59272;BME280;45043;51.068;7.026;2023-05-21T13:23:30;100196.59;;;20.55;41.91
59272;BME280;45043;51.068;7.026;2023-05-21T13:26:30;100199.03;;;20.52;42.08
59272;BME280;45043;51.068;7.026;2023-05-21T13:29:31;100191.19;;;20.66;42.06
59272;BME280;45043;51.068;7.026;2023-05-21T13:32:31;100203.09;;;20.85;41.50
59272;BME280;45043;51.068;7.026;2023-05-21T13:35:32;100194.69;;;21.07;40.97
59272;BME280;45043;51.068;7.026;2023-05-21T13:38:33;100192.72;;;21.28;40.20
59272;BME280;45043;51.068;7.026;2023-05-21T13:41:34;100185.38;;;21.44;40.06
59272;BME280;45043;51.068;7.026;2023-05-21T13:44:34;100182.13;;;21.57;39.56
59272;BME280;45043;51.068;7.026;2023-05-21T13:47:36;100184.78;;;21.67;38.91
59272;BME280;45043;51.068;7.026;2023-05-21T13:50:37;100187.38;;;21.88;38.98
59272;BME280;45043;51.068;7.026;2023-05-21T13:53:37;100187.25;;;22.08;38.19
59272;BME280;45043;51.068;7.026;2023-05-21T13:56:38;100172.28;;;22.26;38.11
59272;BME280;45043;51.068;7.026;2023-05-21T13:59:38;100170.50;;;22.45;38.29
59272;BME280;45043;51.068;7.026;2023-05-21T14:02:41;100167.47;;;22.86;37.40
59272;BME280;45043;51.068;7.026;2023-05-21T14:05:42;100162.03;;;23.10;37.22
59272;BME280;45043;51.068;7.026;2023-05-21T14:08:43;100165.19;;;23.22;36.61
59272;BME280;45043;51.068;7.026;2023-05-21T14:11:44;100172.78;;;23.20;36.76
59272;BME280;45043;51.068;7.026;2023-05-21T14:14:44;100160.78;;;23.27;36.33
59272;BME280;45043;51.068;7.026;2023-05-21T14:17:45;100169.28;;;23.44;36.56
59272;BME280;45043;51.068;7.026;2023-05-21T14:20:45;100174.44;;;23.64;36.07
59272;BME280;45043;51.068;7.026;2023-05-21T14:23:47;100171.59;;;23.75;36.00
59272;BME280;45043;51.068;7.026;2023-05-21T14:26:47;100174.81;;;23.77;35.74
59272;BME280;45043;51.068;7.026;2023-05-21T14:29:48;100171.44;;;23.85;35.79
59272;BME280;45043;51.068;7.026;2023-05-21T14:32:48;100172.78;;;24.06;35.53
59272;BME280;45043;51.068;7.026;2023-05-21T14:35:49;100180.00;;;24.68;34.85
59272;BME280;45043;51.068;7.026;2023-05-21T14:38:49;100167.91;;;25.20;34.00
59272;BME280;45043;51.068;7.026;2023-05-21T14:41:50;100173.75;;;25.27;33.56
59272;BME280;45043;51.068;7.026;2023-05-21T14:44:50;100166.66;;;25.40;32.89
59272;BME280;45043;51.068;7.026;2023-05-21T14:47:51;100171.50;;;25.57;32.55
59272;BME280;45043;51.068;7.026;2023-05-21T14:50:54;100164.13;;;25.71;32.05
59272;BME280;45043;51.068;7.026;2023-05-21T14:53:54;100168.97;;;25.47;32.77
59272;BME280;45043;51.068;7.026;2023-05-21T14:56:56;100176.53;;;25.50;32.73
59272;BME280;45043;51.068;7.026;2023-05-21T14:59:57;100167.53;;;25.77;32.50
59272;BME280;45043;51.068;7.026;2023-05-21T15:02:57;100169.63;;;25.94;31.97
59272;BME280;45043;51.068;7.026;2023-05-21T15:05:58;100164.50;;;26.15;31.81
59272;BME280;45043;51.068;7.026;2023-05-21T15:08:59;100154.81;;;26.45;31.38
59272;BME280;45043;51.068;7.026;2023-05-21T15:11:59;100159.06;;;26.60;31.26
59272;BME280;45043;51.068;7.026;2023-05-21T15:15:00;100153.47;;;26.87;30.65
59272;BME280;45043;51.068;7.026;2023-05-21T15:18:00;100152.50;;;27.32;30.05
59272;BME280;45043;51.068;7.026;2023-05-21T15:21:01;100145.81;;;27.55;29.77
59272;BME280;45043;51.068;7.026;2023-05-21T15:24:02;100148.72;;;27.50;29.57
59272;BME280;45043;51.068;7.026;2023-05-21T15:27:02;100147.91;;;27.49;29.88
59272;BME280;45043;51.068;7.026;2023-05-21T15:30:03;100142.53;;;27.36;29.97
59272;BME280;45043;51.068;7.026;2023-05-21T15:33:04;100140.84;;;27.48;29.98
59272;BME280;45043;51.068;7.026;2023-05-21T15:36:05;100140.69;;;27.62;29.88
59272;BME280;45043;51.068;7.026;2023-05-21T15:39:05;100137.03;;;28.02;29.35
59272;BME280;45043;51.068;7.026;2023-05-21T15:42:06;100115.47;;;28.26;28.86
59272;BME280;45043;51.068;7.026;2023-05-21T15:45:07;100115.19;;;28.19;28.99
59272;BME280;45043;51.068;7.026;2023-05-21T15:48:07;100116.28;;;28.18;28.65
59272;BME280;45043;51.068;7.026;2023-05-21T15:51:08;100113.53;;;28.35;29.20
59272;BME280;45043;51.068;7.026;2023-05-21T15:54:09;100095.03;;;28.50;28.45
59272;BME280;45043;51.068;7.026;2023-05-21T15:57:09;100110.84;;;28.27;28.91
59272;BME280;45043;51.068;7.026;2023-05-21T16:00:10;100122.09;;;27.99;29.34
59272;BME280;45043;51.068;7.026;2023-05-21T16:03:12;100126.41;;;27.74;29.67
59272;BME280;45043;51.068;7.026;2023-05-21T16:06:12;100127.41;;;27.78;29.53
59272;BME280;45043;51.068;7.026;2023-05-21T16:09:13;100121.44;;;28.19;29.04
59272;BME280;45043;51.068;7.026;2023-05-21T16:12:14;100128.34;;;27.99;29.29
59272;BME280;45043;51.068;7.026;2023-05-21T16:15:17;100131.88;;;27.91;29.48
59272;BME280;45043;51.068;7.026;2023-05-21T16:18:17;100126.72;;;27.46;30.13
59272;BME280;45043;51.068;7.026;2023-05-21T16:21:18;100134.63;;;27.08;31.04
59272;BME280;45043;51.068;7.026;2023-05-21T16:24:18;100121.81;;;27.26;30.96
59272;BME280;45043;51.068;7.026;2023-05-21T16:27:19;100112.44;;;27.93;30.30
59272;BME280;45043;51.068;7.026;2023-05-21T16:30:19;100093.00;;;28.20;29.06
59272;BME280;45043;51.068;7.026;2023-05-21T16:33:20;100114.06;;;28.03;29.48
59272;BME280;45043;51.068;7.026;2023-05-21T16:36:20;100114.53;;;27.87;29.78
59272;BME280;45043;51.068;7.026;2023-05-21T16:39:21;100106.03;;;27.71;30.07
59272;BME280;45043;51.068;7.026;2023-05-21T16:42:21;100108.81;;;27.14;30.29
59272;BME280;45043;51.068;7.026;2023-05-21T16:45:21;100104.59;;;26.60;30.80
59272;BME280;45043;51.068;7.026;2023-05-21T16:48:22;100110.22;;;26.18;31.68
59272;BME280;45043;51.068;7.026;2023-05-21T16:51:22;100109.00;;;25.66;32.54
59272;BME280;45043;51.068;7.026;2023-05-21T16:54:23;100122.88;;;25.28;33.46
59272;BME280;45043;51.068;7.026;2023-05-21T16:57:23;100133.00;;;24.81;34.33
59272;BME280;45043;51.068;7.026;2023-05-21T17:00:24;100138.69;;;24.52;34.38
59272;BME280;45043;51.068;7.026;2023-05-21T17:03:24;100126.63;;;24.25;35.39
59272;BME280;45043;51.068;7.026;2023-05-21T17:06:25;100142.22;;;24.01;35.82
59272;BME280;45043;51.068;7.026;2023-05-21T17:09:25;100136.34;;;23.75;36.31
59272;BME280;45043;51.068;7.026;2023-05-21T17:12:25;100137.78;;;23.48;36.07
59272;BME280;45043;51.068;7.026;2023-05-21T17:15:26;100136.16;;;23.23;36.68
59272;BME280;45043;51.068;7.026;2023-05-21T17:18:26;100140.03;;;22.93;37.86
59272;BME280;45043;51.068;7.026;2023-05-21T17:21:27;100137.56;;;22.67;38.04
59272;BME280;45043;51.068;7.026;2023-05-21T17:24:27;100142.59;;;22.50;38.35